createdAt,value
2019-03-25T00:00:44.026Z,16.73
2019-03-25T00:01:51.097Z,14.85
2019-03-25T00:02:55.867Z,17.48
2019-03-25T00:04:00.390Z,16.35
2019-03-25T00:05:05.164Z,13.93
2019-03-25T00:06:09.685Z,14.68
2019-03-25T00:07:14.456Z,17.67
2019-03-25T00:08:19.144Z,17.60
2019-03-25T00:09:23.898Z,12.43
2019-03-25T00:10:28.589Z,20.17
2019-03-25T00:11:33.278Z,20.50
2019-03-25T00:12:37.719Z,17.25
2019-03-25T00:13:42.495Z,13.68
2019-03-25T00:14:46.945Z,18.67
2019-03-25T00:15:51.315Z,16.10
2019-03-25T00:16:55.825Z,15.35
2019-03-25T00:18:00.344Z,18.98
2019-03-25T00:19:05.121Z,16.87
2019-03-25T00:20:09.645Z,16.65
2019-03-25T00:21:14.166Z,15.80
2019-03-25T00:22:18.780Z,15.13
2019-03-25T00:23:23.220Z,18.80
2019-03-25T00:24:38.227Z,15.98
2019-03-25T00:25:33.766Z,16.80
2019-03-25T00:26:38.205Z,18.70
2019-03-25T00:27:42.813Z,20.05
2019-03-25T00:28:47.419Z,16.25
2019-03-25T00:29:52.120Z,21.60
2019-03-25T00:30:56.804Z,15.93
2019-03-25T00:32:01.744Z,18.25
2019-03-25T00:33:06.190Z,22.15
2019-03-25T00:34:10.724Z,19.85
2019-03-25T00:35:15.482Z,18.87
2019-03-25T00:36:20.096Z,17.80
2019-03-25T00:37:24.532Z,23.25
2019-03-25T00:38:29.058Z,18.05
2019-03-25T00:39:33.519Z,19.52
2019-03-25T00:40:37.956Z,19.05
2019-03-25T00:41:42.400Z,23.90
2019-03-25T00:42:46.837Z,19.48
2019-03-25T00:43:51.280Z,19.07
2019-03-25T00:44:56.479Z,20.02
2019-03-25T00:46:01.211Z,19.52
2019-03-25T00:47:05.653Z,21.20
2019-03-25T00:48:10.093Z,22.77
2019-03-25T00:49:14.773Z,21.48
2019-03-25T00:50:19.388Z,18.60
2019-03-25T00:51:24.070Z,19.05
2019-03-25T00:52:28.617Z,19.98
2019-03-25T00:53:33.314Z,24.67
2019-03-25T00:54:49.370Z,17.48
2019-03-25T00:55:44.064Z,22.82
2019-03-25T00:56:48.622Z,30.70
2019-03-25T00:57:52.985Z,27.58
2019-03-25T00:58:57.435Z,24.43
2019-03-25T01:00:01.987Z,26.20
2019-03-25T01:01:06.519Z,28.10
2019-03-25T01:02:11.034Z,22.75
2019-03-25T01:03:15.478Z,19.42
2019-03-25T01:04:20.170Z,17.98
2019-03-25T01:05:24.704Z,16.52
2019-03-25T01:06:29.384Z,20.05
2019-03-25T01:07:33.827Z,17.62
2019-03-25T01:08:38.280Z,22.17
2019-03-25T01:09:42.649Z,20.62
2019-03-25T01:10:47.111Z,18.23
2019-03-25T01:11:51.802Z,20.65
2019-03-25T01:12:56.246Z,19.30
2019-03-25T01:14:00.629Z,20.95
2019-03-25T01:15:05.514Z,19.77
2019-03-25T01:16:09.952Z,19.25
2019-03-25T01:17:14.317Z,22.42
2019-03-25T01:18:18.763Z,18.80
2019-03-25T01:19:23.368Z,19.52
2019-03-25T01:20:27.843Z,19.52
2019-03-25T01:21:32.771Z,18.82
2019-03-25T01:22:37.455Z,18.60
2019-03-25T01:23:41.979Z,15.60
2019-03-25T01:24:46.344Z,19.27
2019-03-25T01:25:50.805Z,19.70
2019-03-25T01:26:55.568Z,18.85
2019-03-25T01:28:00.257Z,21.17
2019-03-25T01:29:04.946Z,18.25
2019-03-25T01:30:09.693Z,22.65
2019-03-25T01:31:14.388Z,19.52
2019-03-25T01:32:19.075Z,14.18
2019-03-25T01:33:23.684Z,16.97
2019-03-25T01:34:28.126Z,18.75
2019-03-25T01:35:32.761Z,15.58
2019-03-25T01:36:37.130Z,15.23
2019-03-25T01:37:42.207Z,18.27
2019-03-25T01:38:46.648Z,16.35
2019-03-25T01:39:51.175Z,18.62
2019-03-25T01:40:55.633Z,17.00
2019-03-25T01:42:00.402Z,17.37
2019-03-25T01:43:04.976Z,20.25
2019-03-25T01:44:09.493Z,15.63
2019-03-25T01:45:14.008Z,16.10
2019-03-25T01:46:18.721Z,19.57
2019-03-25T01:47:23.167Z,16.07
2019-03-25T01:48:27.778Z,15.45
2019-03-25T01:49:32.551Z,19.27
2019-03-25T01:50:37.001Z,23.35
2019-03-25T01:51:41.526Z,15.53
2019-03-25T01:52:45.969Z,15.75
2019-03-25T01:53:50.502Z,12.63
2019-03-25T01:54:54.940Z,14.85
2019-03-25T01:55:59.578Z,16.10
2019-03-25T01:57:04.021Z,16.73
2019-03-25T01:58:08.470Z,13.20
2019-03-25T01:59:13.230Z,16.40
2019-03-25T02:00:17.850Z,16.82
2019-03-25T02:01:22.313Z,15.48
2019-03-25T02:02:26.992Z,17.35
2019-03-25T02:03:31.864Z,19.10
2019-03-25T02:04:36.299Z,17.62
2019-03-25T02:05:40.759Z,16.48
2019-03-25T02:06:45.120Z,14.25
2019-03-25T02:07:49.565Z,15.20
2019-03-25T02:08:53.929Z,15.83
2019-03-25T02:09:58.783Z,14.87
2019-03-25T02:11:03.497Z,14.15
2019-03-25T02:12:08.185Z,13.78
2019-03-25T02:13:12.954Z,16.25
2019-03-25T02:14:18.191Z,14.60
2019-03-25T02:15:22.884Z,16.07
2019-03-25T02:16:27.579Z,16.00
2019-03-25T02:17:31.942Z,12.30
2019-03-25T02:18:36.557Z,21.60
2019-03-25T02:19:41.328Z,18.85
2019-03-25T02:20:46.276Z,16.37
2019-03-25T02:21:51.019Z,17.60
2019-03-25T02:22:56.084Z,20.25
2019-03-25T02:24:00.516Z,14.25
2019-03-25T02:25:05.575Z,15.10
2019-03-25T02:26:09.955Z,18.45
2019-03-25T02:27:14.396Z,18.07
2019-03-25T02:28:19.080Z,14.73
2019-03-25T02:29:23.519Z,19.90
2019-03-25T02:30:28.033Z,12.58
2019-03-25T02:31:32.412Z,17.42
2019-03-25T02:32:37.105Z,14.95
2019-03-25T02:33:41.717Z,17.10
2019-03-25T02:34:46.083Z,19.73
2019-03-25T02:35:50.528Z,13.58
2019-03-25T02:36:54.988Z,15.63
2019-03-25T02:37:59.367Z,16.87
2019-03-25T02:39:04.978Z,18.37
2019-03-25T02:40:09.499Z,16.00
2019-03-25T02:41:14.116Z,16.07
2019-03-25T02:42:18.639Z,16.05
2019-03-25T02:43:23.260Z,15.23
2019-03-25T02:44:27.629Z,18.45
2019-03-25T02:45:32.571Z,16.07
2019-03-25T02:46:37.027Z,18.48
2019-03-25T02:47:41.541Z,15.48
2019-03-25T02:48:46.401Z,17.75
2019-03-25T02:49:51.262Z,15.30
2019-03-25T02:50:55.636Z,15.63
2019-03-25T02:52:00.280Z,20.37
2019-03-25T02:53:04.694Z,15.03
2019-03-25T02:54:10.051Z,16.90
2019-03-25T02:55:14.505Z,19.73
2019-03-25T02:56:18.953Z,18.57
2019-03-25T02:57:23.320Z,17.12
2019-03-25T02:58:27.759Z,18.37
2019-03-25T02:59:32.387Z,15.72
2019-03-25T03:00:38.085Z,15.95
2019-03-25T03:01:42.529Z,14.68
2019-03-25T03:02:46.897Z,18.25
2019-03-25T03:03:51.263Z,14.10
2019-03-25T03:04:55.616Z,14.75
2019-03-25T03:06:00.254Z,14.00
2019-03-25T03:07:04.710Z,15.80
2019-03-25T03:08:09.458Z,15.85
2019-03-25T03:09:14.213Z,16.20
2019-03-25T03:10:18.726Z,16.27
2019-03-25T03:11:23.180Z,17.00
2019-03-25T03:12:27.627Z,14.33
2019-03-25T03:13:32.416Z,17.27
2019-03-25T03:14:36.792Z,12.37
2019-03-25T03:15:41.177Z,14.65
2019-03-25T03:16:45.836Z,11.90
2019-03-25T03:17:50.209Z,14.13
2019-03-25T03:18:54.591Z,19.42
2019-03-25T03:19:59.617Z,14.75
2019-03-25T03:21:04.072Z,11.65
2019-03-25T03:22:08.443Z,16.90
2019-03-25T03:23:12.794Z,18.98
2019-03-25T03:24:17.159Z,18.23
2019-03-25T03:25:21.860Z,15.70
2019-03-25T03:26:26.812Z,14.58
2019-03-25T03:27:31.491Z,19.25
2019-03-25T03:28:35.858Z,19.77
2019-03-25T03:29:40.473Z,15.00
2019-03-25T03:30:44.916Z,12.63
2019-03-25T03:31:49.561Z,14.20
2019-03-25T03:32:54.140Z,14.23
2019-03-25T03:33:58.521Z,20.27
2019-03-25T03:35:03.595Z,13.80
2019-03-25T03:36:08.111Z,16.02
2019-03-25T03:37:12.813Z,18.92
2019-03-25T03:38:17.746Z,19.48
2019-03-25T03:39:22.677Z,20.30
2019-03-25T03:40:27.128Z,13.08
2019-03-25T03:41:31.496Z,14.10
2019-03-25T03:42:35.945Z,12.98
2019-03-25T03:43:40.746Z,17.05
2019-03-25T03:44:45.187Z,14.85
2019-03-25T03:45:49.860Z,13.15
2019-03-25T03:46:54.592Z,15.70
2019-03-25T03:47:59.261Z,11.57
2019-03-25T03:49:03.952Z,19.55
2019-03-25T03:50:08.907Z,40.67
2019-03-25T03:51:13.539Z,16.67
2019-03-25T03:52:18.308Z,22.45
2019-03-25T03:53:22.842Z,13.98
2019-03-25T03:54:27.336Z,16.67
2019-03-25T03:55:34.400Z,19.95
2019-03-25T03:56:39.390Z,19.52
2019-03-25T03:57:44.895Z,18.77
2019-03-25T03:58:50.515Z,16.95
2019-03-25T03:59:55.515Z,15.55
2019-03-25T04:00:59.877Z,13.08
2019-03-25T04:02:04.344Z,17.40
2019-03-25T04:03:08.867Z,13.13
2019-03-25T04:04:13.235Z,12.95
2019-03-25T04:05:17.838Z,14.50
2019-03-25T04:06:22.300Z,15.43
2019-03-25T04:07:26.677Z,15.55
2019-03-25T04:08:31.112Z,15.20
2019-03-25T04:09:35.629Z,17.67
2019-03-25T04:10:40.566Z,16.73
2019-03-25T04:11:45.276Z,13.35
2019-03-25T04:12:49.961Z,13.38
2019-03-25T04:13:54.476Z,16.75
2019-03-25T04:14:59.247Z,14.00
2019-03-25T04:16:03.809Z,17.25
2019-03-25T04:17:08.257Z,13.53
2019-03-25T04:18:12.785Z,16.05
2019-03-25T04:19:17.266Z,19.02
2019-03-25T04:20:22.312Z,14.25
2019-03-25T04:21:26.690Z,16.85
2019-03-25T04:22:31.045Z,16.05
2019-03-25T04:23:35.649Z,18.95
2019-03-25T04:24:40.270Z,11.03
2019-03-25T04:25:44.886Z,12.65
2019-03-25T04:26:49.512Z,12.23
2019-03-25T04:27:54.288Z,16.60
2019-03-25T04:28:58.732Z,15.10
2019-03-25T04:30:03.176Z,11.80
2019-03-25T04:31:07.614Z,18.57
2019-03-25T04:32:12.071Z,18.20
2019-03-25T04:33:16.765Z,13.20
2019-03-25T04:34:21.124Z,14.60
2019-03-25T04:35:25.570Z,14.73
2019-03-25T04:36:30.030Z,21.33
2019-03-25T04:37:34.472Z,13.95
2019-03-25T04:38:39.134Z,12.10
2019-03-25T04:39:44.069Z,12.88
2019-03-25T04:40:48.435Z,13.10
2019-03-25T04:41:52.809Z,18.17
2019-03-25T04:42:57.170Z,11.43
2019-03-25T04:44:01.619Z,14.75
2019-03-25T04:45:06.291Z,13.40
2019-03-25T04:46:10.908Z,16.60
2019-03-25T04:47:15.383Z,18.25
2019-03-25T04:48:19.830Z,11.88
2019-03-25T04:49:24.271Z,15.85
2019-03-25T04:50:28.792Z,13.72
2019-03-25T04:51:33.154Z,12.60
2019-03-25T04:52:37.612Z,12.73
2019-03-25T04:53:42.215Z,12.23
2019-03-25T04:54:46.906Z,12.68
2019-03-25T04:55:51.352Z,13.10
2019-03-25T04:56:55.804Z,9.18
2019-03-25T04:58:00.412Z,13.40
2019-03-25T04:59:05.557Z,11.90
2019-03-25T05:00:10.425Z,14.50
2019-03-25T05:01:14.866Z,16.93
2019-03-25T05:02:19.889Z,15.23
2019-03-25T05:03:24.256Z,16.25
2019-03-25T05:04:28.947Z,15.58
2019-03-25T05:05:35.883Z,14.58
2019-03-25T05:06:39.559Z,22.25
2019-03-25T05:07:43.939Z,16.80
2019-03-25T05:08:48.554Z,16.65
2019-03-25T05:09:53.244Z,16.85
2019-03-25T05:10:57.687Z,13.43
2019-03-25T05:12:02.233Z,14.47
2019-03-25T05:13:06.850Z,17.37
2019-03-25T05:14:11.293Z,17.95
2019-03-25T05:15:15.734Z,19.32
2019-03-25T05:16:20.656Z,15.75
2019-03-25T05:17:25.352Z,11.78
2019-03-25T05:18:30.364Z,16.00
2019-03-25T05:19:34.726Z,16.50
2019-03-25T05:20:39.341Z,16.25
2019-03-25T05:21:43.948Z,17.82
2019-03-25T05:22:48.609Z,19.73
2019-03-25T05:23:52.945Z,21.62
2019-03-25T05:24:57.382Z,18.80
2019-03-25T05:26:02.650Z,20.35
2019-03-25T05:27:07.164Z,18.50
2019-03-25T05:28:11.629Z,19.73
2019-03-25T05:29:15.986Z,31.15
2019-03-25T05:30:22.934Z,26.02
2019-03-25T05:31:26.831Z,20.35
2019-03-25T05:32:31.197Z,25.60
2019-03-25T05:33:35.895Z,33.53
2019-03-25T05:34:40.848Z,25.55
2019-03-25T05:35:46.878Z,22.42
2019-03-25T05:36:52.356Z,24.82
2019-03-25T05:37:57.269Z,23.38
2019-03-25T05:39:01.890Z,23.40
2019-03-25T05:40:06.517Z,24.87
2019-03-25T05:41:10.885Z,25.97
2019-03-25T05:42:15.504Z,24.12
2019-03-25T05:43:21.198Z,24.15
2019-03-25T05:44:25.992Z,22.37
2019-03-25T05:45:30.829Z,24.80
2019-03-25T05:46:35.471Z,21.00
2019-03-25T05:47:39.926Z,19.90
2019-03-25T05:48:44.805Z,21.85
2019-03-25T05:49:49.467Z,24.40
2019-03-25T05:50:54.481Z,19.12
2019-03-25T05:51:58.918Z,21.65
2019-03-25T05:53:04.186Z,20.20
2019-03-25T05:54:08.550Z,20.65
2019-03-25T05:55:13.165Z,25.30
2019-03-25T05:56:19.343Z,19.77
2019-03-25T05:57:23.712Z,25.32
2019-03-25T05:58:28.100Z,22.48
2019-03-25T05:59:32.728Z,19.70
2019-03-25T06:00:37.612Z,32.40
2019-03-25T06:01:44.219Z,25.48
2019-03-25T06:02:48.618Z,21.20
2019-03-25T06:03:53.075Z,31.70
2019-03-25T06:04:57.748Z,24.40
2019-03-25T06:06:02.194Z,23.20
2019-03-25T06:07:06.632Z,22.85
2019-03-25T06:08:11.012Z,19.30
2019-03-25T06:09:15.633Z,18.40
2019-03-25T06:10:20.160Z,22.93
2019-03-25T06:11:25.026Z,25.15
2019-03-25T06:12:29.764Z,18.52
2019-03-25T06:13:34.228Z,21.35
2019-03-25T06:14:38.918Z,16.35
2019-03-25T06:15:43.402Z,14.30
2019-03-25T06:16:48.020Z,19.07
2019-03-25T06:17:52.489Z,22.48
2019-03-25T06:18:56.890Z,19.73
2019-03-25T06:20:01.353Z,19.20
2019-03-25T06:21:05.797Z,18.60
2019-03-25T06:22:10.511Z,14.87
2019-03-25T06:23:15.302Z,22.75
2019-03-25T06:24:19.754Z,16.37
2019-03-25T06:25:24.221Z,22.20
2019-03-25T06:26:28.850Z,15.35
2019-03-25T06:27:33.203Z,21.52
2019-03-25T06:28:37.832Z,15.43
2019-03-25T06:29:42.274Z,18.32
2019-03-25T06:30:47.217Z,18.85
2019-03-25T06:31:51.825Z,19.67
2019-03-25T06:32:56.815Z,24.87
2019-03-25T06:34:01.448Z,19.50
2019-03-25T06:35:08.689Z,21.05
2019-03-25T06:36:12.660Z,17.73
2019-03-25T06:37:17.055Z,15.95
2019-03-25T06:38:21.841Z,17.92
2019-03-25T06:39:26.262Z,16.15
2019-03-25T06:40:30.710Z,19.52
2019-03-25T06:41:35.416Z,19.23
2019-03-25T06:42:40.108Z,24.20
2019-03-25T06:43:44.483Z,21.80
2019-03-25T06:44:49.006Z,19.50
2019-03-25T06:45:53.445Z,16.55
2019-03-25T06:46:58.379Z,20.17
2019-03-25T06:48:03.081Z,18.48
2019-03-25T06:49:07.535Z,15.53
2019-03-25T06:50:12.059Z,19.80
2019-03-25T06:51:16.676Z,16.27
2019-03-25T06:52:21.121Z,17.55
2019-03-25T06:53:25.832Z,18.25
2019-03-25T06:54:30.360Z,20.85
2019-03-25T06:55:34.808Z,15.28
2019-03-25T06:56:39.413Z,16.10
2019-03-25T06:57:43.858Z,18.80
2019-03-25T06:58:48.485Z,18.45
2019-03-25T06:59:52.860Z,19.87
2019-03-25T07:00:57.715Z,23.85
2019-03-25T07:02:02.095Z,21.42
2019-03-25T07:03:06.842Z,23.12
2019-03-25T07:04:11.557Z,23.05
2019-03-25T07:05:17.558Z,16.30
2019-03-25T07:06:22.002Z,16.45
2019-03-25T07:07:26.451Z,23.25
2019-03-25T07:08:31.801Z,21.07
2019-03-25T07:09:36.178Z,32.93
2019-03-25T07:10:41.119Z,21.85
2019-03-25T07:11:46.187Z,21.97
2019-03-25T07:12:50.880Z,23.80
2019-03-25T07:13:55.765Z,18.12
2019-03-25T07:15:00.327Z,20.77
2019-03-25T07:16:04.818Z,20.85
2019-03-25T07:17:09.576Z,18.87
2019-03-25T07:18:14.022Z,18.37
2019-03-25T07:19:18.425Z,16.60
2019-03-25T07:20:22.878Z,15.10
2019-03-25T07:21:27.342Z,23.30
2019-03-25T07:22:31.791Z,20.90
2019-03-25T07:23:36.425Z,20.32
2019-03-25T07:24:41.021Z,22.02
2019-03-25T07:25:45.475Z,23.27
2019-03-25T07:26:49.914Z,22.55
2019-03-25T07:27:54.600Z,26.60
2019-03-25T07:28:59.489Z,21.97
2019-03-25T07:30:04.162Z,20.37
2019-03-25T07:31:08.601Z,23.15
2019-03-25T07:32:13.117Z,23.12
2019-03-25T07:33:17.483Z,19.77
2019-03-25T07:34:21.870Z,23.18
2019-03-25T07:35:26.557Z,19.37
2019-03-25T07:36:30.926Z,19.00
2019-03-25T07:37:35.302Z,19.67
2019-03-25T07:38:39.684Z,15.03
2019-03-25T07:39:44.294Z,17.67
2019-03-25T07:40:49.056Z,17.60
2019-03-25T07:41:53.830Z,15.23
2019-03-25T07:42:58.395Z,19.73
2019-03-25T07:44:02.783Z,14.35
2019-03-25T07:45:07.883Z,17.85
2019-03-25T07:46:12.244Z,20.40
2019-03-25T07:47:16.867Z,18.82
2019-03-25T07:48:22.244Z,20.37
2019-03-25T07:49:26.703Z,20.12
2019-03-25T07:50:31.394Z,19.17
2019-03-25T07:51:35.838Z,17.48
2019-03-25T07:52:40.288Z,13.30
2019-03-25T07:53:45.268Z,13.30
2019-03-25T07:54:49.940Z,18.55
2019-03-25T07:55:55.294Z,17.23
2019-03-25T07:56:59.762Z,20.30
2019-03-25T07:58:04.262Z,17.80
2019-03-25T07:59:08.810Z,18.92
2019-03-25T08:00:14.319Z,13.70
2019-03-25T08:01:18.803Z,15.15
2019-03-25T08:02:23.887Z,15.78
2019-03-25T08:03:28.298Z,16.87
2019-03-25T08:04:32.769Z,14.50
2019-03-25T08:05:37.282Z,20.15
2019-03-25T08:06:41.661Z,17.55
2019-03-25T08:07:46.327Z,16.23
2019-03-25T08:08:50.691Z,14.63
2019-03-25T08:09:55.387Z,17.98
2019-03-25T08:10:59.798Z,20.27
2019-03-25T08:12:04.268Z,16.50
2019-03-25T08:13:08.953Z,13.50
2019-03-25T08:14:13.933Z,18.40
2019-03-25T08:15:18.383Z,15.83
2019-03-25T08:16:23.070Z,22.05
2019-03-25T08:17:27.441Z,15.88
2019-03-25T08:18:31.808Z,13.90
2019-03-25T08:19:36.190Z,15.70
2019-03-25T08:20:40.719Z,15.53
2019-03-25T08:21:45.418Z,15.18
2019-03-25T08:22:49.788Z,14.73
2019-03-25T08:23:54.247Z,21.70
2019-03-25T08:24:58.695Z,17.87
2019-03-25T08:26:03.141Z,23.83
2019-03-25T08:27:07.670Z,19.95
2019-03-25T08:28:12.195Z,18.15
2019-03-25T08:29:16.578Z,15.38
2019-03-25T08:30:21.033Z,22.35
2019-03-25T08:31:25.722Z,18.75
2019-03-25T08:32:30.420Z,16.67
2019-03-25T08:33:35.197Z,17.10
2019-03-25T08:34:39.907Z,18.77
2019-03-25T08:35:44.429Z,23.38
2019-03-25T08:36:48.912Z,18.00
2019-03-25T08:37:53.434Z,13.83
2019-03-25T08:38:58.349Z,16.23
2019-03-25T08:40:02.888Z,17.52
2019-03-25T08:41:07.654Z,21.50
2019-03-25T08:42:12.428Z,15.03
2019-03-25T08:43:16.870Z,19.20
2019-03-25T08:44:21.755Z,19.67
2019-03-25T08:45:26.514Z,18.05
2019-03-25T08:46:30.971Z,16.70
2019-03-25T08:47:35.670Z,15.53
2019-03-25T08:48:40.117Z,23.12
2019-03-25T08:49:44.579Z,16.50
2019-03-25T08:50:49.023Z,17.75
2019-03-25T08:51:53.548Z,21.17
2019-03-25T08:52:58.071Z,22.05
2019-03-25T08:54:02.855Z,15.40
2019-03-25T08:55:08.027Z,15.90
2019-03-25T08:56:13.041Z,13.68
2019-03-25T08:57:17.404Z,15.05
2019-03-25T08:58:21.774Z,15.03
2019-03-25T08:59:26.654Z,17.37
2019-03-25T09:00:31.176Z,14.87
2019-03-25T09:01:35.826Z,14.07
2019-03-25T09:02:40.443Z,18.32
2019-03-25T09:03:44.888Z,16.73
2019-03-25T09:04:49.505Z,18.57
2019-03-25T09:05:53.945Z,17.10
2019-03-25T09:06:58.554Z,17.52
2019-03-25T09:08:03.079Z,19.02
2019-03-25T09:09:08.622Z,17.85
2019-03-25T09:10:13.448Z,20.57
2019-03-25T09:11:18.396Z,17.60
2019-03-25T09:12:22.771Z,15.95
2019-03-25T09:13:27.290Z,16.82
2019-03-25T09:14:31.993Z,17.32
2019-03-25T09:15:37.108Z,16.62
2019-03-25T09:16:41.805Z,13.00
2019-03-25T09:17:46.489Z,16.37
2019-03-25T09:18:51.028Z,18.17
2019-03-25T09:19:55.387Z,13.62
2019-03-25T09:20:59.757Z,15.80
2019-03-25T09:22:04.287Z,19.30
2019-03-25T09:23:08.734Z,16.30
2019-03-25T09:24:13.108Z,16.62
2019-03-25T09:25:17.854Z,19.73
2019-03-25T09:26:22.377Z,12.13
2019-03-25T09:27:27.061Z,17.15
2019-03-25T09:28:31.501Z,14.15
2019-03-25T09:29:35.977Z,14.25
2019-03-25T09:31:19.687Z,15.45
2019-03-25T09:32:24.384Z,15.95
2019-03-25T09:33:29.146Z,13.75
2019-03-25T09:34:33.531Z,14.35
2019-03-25T09:35:37.904Z,11.57
2019-03-25T09:36:42.346Z,12.90
2019-03-25T09:37:46.865Z,13.72
2019-03-25T09:38:51.552Z,20.17
2019-03-25T09:39:55.930Z,9.15
2019-03-25T09:41:00.374Z,14.68
2019-03-25T09:42:05.074Z,11.95
2019-03-25T09:43:09.589Z,9.65
2019-03-25T09:44:14.112Z,12.33
2019-03-25T09:45:18.648Z,14.33
2019-03-25T09:46:23.173Z,16.00
2019-03-25T09:47:27.695Z,9.95
2019-03-25T09:48:32.145Z,13.62
2019-03-25T09:49:36.867Z,25.25
2019-03-25T09:50:41.316Z,11.78
2019-03-25T09:51:45.840Z,14.00
2019-03-25T09:52:50.211Z,12.20
2019-03-25T09:53:54.907Z,18.32
2019-03-25T09:54:59.292Z,14.00
2019-03-25T09:56:04.607Z,10.85
2019-03-25T09:57:10.503Z,14.53
2019-03-25T09:58:15.029Z,15.35
2019-03-25T09:59:19.648Z,14.78
2019-03-25T10:00:30.499Z,13.08
2019-03-25T10:01:34.872Z,8.53
2019-03-25T10:02:39.411Z,12.53
2019-03-25T10:03:44.177Z,9.98
2019-03-25T10:04:48.891Z,11.85
2019-03-25T10:05:53.527Z,13.15
2019-03-25T10:06:58.050Z,11.63
2019-03-25T10:08:02.823Z,10.10
2019-03-25T10:09:11.440Z,17.90
2019-03-25T10:10:15.969Z,10.68
2019-03-25T10:11:20.418Z,10.40
2019-03-25T10:12:24.863Z,10.88
2019-03-25T10:13:29.397Z,13.43
2019-03-25T10:14:34.021Z,10.35
2019-03-25T10:15:38.569Z,12.85
2019-03-25T10:16:43.011Z,7.90
2019-03-25T10:17:47.534Z,12.05
2019-03-25T10:18:52.218Z,12.93
2019-03-25T10:19:56.684Z,10.03
2019-03-25T10:21:01.446Z,7.17
2019-03-25T10:22:05.999Z,9.20
2019-03-25T10:23:10.462Z,12.55
2019-03-25T10:24:15.412Z,10.00
2019-03-25T10:25:19.925Z,11.45
2019-03-25T10:26:24.379Z,13.05
2019-03-25T10:27:28.833Z,11.63
2019-03-25T10:28:33.275Z,10.08
2019-03-25T10:29:37.643Z,9.45
2019-03-25T10:30:42.178Z,9.23
2019-03-25T10:31:46.695Z,10.25
2019-03-25T10:32:51.133Z,8.53
2019-03-25T10:33:55.651Z,9.88
2019-03-25T10:35:00.019Z,10.23
2019-03-25T10:36:04.565Z,10.88
2019-03-25T10:37:09.087Z,10.35
2019-03-25T10:38:19.639Z,12.88
2019-03-25T10:39:20.381Z,10.28
2019-03-25T10:40:24.921Z,10.72
2019-03-25T10:41:29.367Z,10.70
2019-03-25T10:42:33.809Z,13.00
2019-03-25T10:43:38.504Z,10.40
2019-03-25T10:44:42.955Z,11.63
2019-03-25T10:45:47.493Z,13.50
2019-03-25T10:46:51.934Z,11.05
2019-03-25T10:47:56.453Z,12.55
2019-03-25T10:49:01.127Z,10.05
2019-03-25T10:50:06.415Z,8.45
2019-03-25T10:51:10.967Z,12.30
2019-03-25T10:52:15.344Z,9.93
2019-03-25T10:53:19.958Z,12.23
2019-03-25T10:54:24.380Z,13.53
2019-03-25T10:55:28.721Z,11.40
2019-03-25T10:56:33.351Z,9.53
2019-03-25T10:57:37.799Z,11.60
2019-03-25T10:58:42.174Z,10.45
2019-03-25T10:59:46.699Z,9.60
2019-03-25T11:00:51.556Z,10.95
2019-03-25T11:01:56.075Z,8.35
2019-03-25T11:03:00.943Z,12.23
2019-03-25T11:04:05.466Z,9.75
2019-03-25T11:05:10.437Z,11.05
2019-03-25T11:06:15.156Z,8.93
2019-03-25T11:07:19.995Z,9.00
2019-03-25T11:08:24.931Z,7.65
2019-03-25T11:09:29.372Z,7.62
2019-03-25T11:10:34.057Z,8.78
2019-03-25T11:11:38.530Z,12.23
2019-03-25T11:12:42.896Z,6.75
2019-03-25T11:13:47.341Z,7.55
2019-03-25T11:14:51.785Z,7.80
2019-03-25T11:15:56.257Z,10.23
2019-03-25T11:17:00.998Z,10.05
2019-03-25T11:18:05.904Z,10.00
2019-03-25T11:19:10.662Z,9.58
2019-03-25T11:20:15.420Z,8.33
2019-03-25T11:21:19.878Z,9.30
2019-03-25T11:22:24.511Z,10.50
2019-03-25T11:23:29.023Z,6.95
2019-03-25T11:24:33.540Z,8.73
2019-03-25T11:25:37.984Z,8.18
2019-03-25T11:26:42.517Z,8.63
2019-03-25T11:27:54.257Z,7.83
2019-03-25T11:28:53.734Z,15.80
2019-03-25T11:29:58.258Z,9.28
2019-03-25T11:31:02.782Z,8.53
2019-03-25T11:32:07.251Z,10.08
2019-03-25T11:33:11.636Z,8.63
2019-03-25T11:34:16.004Z,3.20
2019-03-25T11:35:20.448Z,7.25
2019-03-25T11:36:24.830Z,7.15
2019-03-25T11:37:29.842Z,6.78
2019-03-25T11:38:34.362Z,8.73
2019-03-25T11:39:38.890Z,8.20
2019-03-25T11:40:43.409Z,5.70
2019-03-25T11:41:47.946Z,7.42
2019-03-25T11:42:52.393Z,7.75
2019-03-25T11:43:56.908Z,6.83
2019-03-25T11:45:01.278Z,6.97
2019-03-25T11:46:06.044Z,6.35
2019-03-25T11:47:10.425Z,9.40
2019-03-25T11:48:14.875Z,9.95
2019-03-25T11:49:19.319Z,10.30
2019-03-25T11:50:23.843Z,7.35
2019-03-25T11:51:28.647Z,10.15
2019-03-25T11:52:33.090Z,9.18
2019-03-25T11:53:37.568Z,15.78
2019-03-25T11:54:42.013Z,9.30
2019-03-25T11:55:46.725Z,10.48
2019-03-25T11:56:51.183Z,6.92
2019-03-25T11:57:55.625Z,8.15
2019-03-25T11:59:02.803Z,10.98
2019-03-25T12:00:07.999Z,10.65
2019-03-25T12:01:12.516Z,7.33
2019-03-25T12:02:17.978Z,10.35
2019-03-25T12:03:22.539Z,10.75
2019-03-25T12:04:27.224Z,7.75
2019-03-25T12:05:31.591Z,6.75
2019-03-25T12:06:36.208Z,7.47
2019-03-25T12:07:41.145Z,8.55
2019-03-25T12:08:45.592Z,10.65
2019-03-25T12:09:49.956Z,8.68
2019-03-25T12:10:54.401Z,9.73
2019-03-25T12:11:58.859Z,9.53
2019-03-25T12:13:03.224Z,7.62
2019-03-25T12:14:07.753Z,9.18
2019-03-25T12:15:12.496Z,9.08
2019-03-25T12:16:17.014Z,8.28
2019-03-25T12:17:21.722Z,9.05
2019-03-25T12:18:26.172Z,11.57
2019-03-25T12:19:30.621Z,8.85
2019-03-25T12:20:35.140Z,9.73
2019-03-25T12:21:39.667Z,11.85
2019-03-25T12:22:44.051Z,7.20
2019-03-25T12:23:48.407Z,9.55
2019-03-25T12:24:53.025Z,10.82
2019-03-25T12:25:57.475Z,9.00
2019-03-25T12:27:02.181Z,9.13
2019-03-25T12:28:06.708Z,9.68
2019-03-25T12:29:11.074Z,8.60
2019-03-25T12:30:15.723Z,7.53
2019-03-25T12:31:20.486Z,7.75
2019-03-25T12:32:25.026Z,13.28
2019-03-25T12:33:29.388Z,8.63
2019-03-25T12:34:34.285Z,8.85
2019-03-25T12:35:39.006Z,8.93
2019-03-25T12:36:43.378Z,8.55
2019-03-25T12:37:47.835Z,9.48
2019-03-25T12:38:52.876Z,9.85
2019-03-25T12:39:57.317Z,8.23
2019-03-25T12:41:02.014Z,13.20
2019-03-25T12:42:06.572Z,9.23
2019-03-25T12:43:11.033Z,7.22
2019-03-25T12:44:15.398Z,7.15
2019-03-25T12:45:19.913Z,6.50
2019-03-25T12:46:24.441Z,7.03
2019-03-25T12:47:28.922Z,8.15
2019-03-25T12:48:33.449Z,9.70
2019-03-25T12:49:38.399Z,9.28
2019-03-25T12:50:42.857Z,6.45
2019-03-25T12:51:48.543Z,6.53
2019-03-25T12:52:53.056Z,8.73
2019-03-25T12:53:58.161Z,7.03
2019-03-25T12:55:02.696Z,5.75
2019-03-25T12:56:07.385Z,5.47
2019-03-25T12:57:12.082Z,8.08
2019-03-25T12:58:16.613Z,7.05
2019-03-25T12:59:21.221Z,11.12
2019-03-25T13:00:37.378Z,4.37
2019-03-25T13:01:52.185Z,6.10
2019-03-25T13:02:47.989Z,4.80
2019-03-25T13:03:52.763Z,5.72
2019-03-25T13:04:57.618Z,5.45
2019-03-25T13:06:02.355Z,3.17
2019-03-25T13:07:07.118Z,2.20
2019-03-25T13:08:11.651Z,5.55
2019-03-25T13:09:16.514Z,4.10
2019-03-25T13:10:21.106Z,6.78
2019-03-25T13:11:25.550Z,5.35
2019-03-25T13:12:30.479Z,3.77
2019-03-25T13:13:34.858Z,2.40
2019-03-25T13:14:39.794Z,4.15
2019-03-25T13:15:44.500Z,4.20
2019-03-25T13:16:48.870Z,4.55
2019-03-25T13:17:53.579Z,2.75
2019-03-25T13:18:58.266Z,2.75
2019-03-25T13:20:02.714Z,3.10
2019-03-25T13:21:07.470Z,3.85
2019-03-25T13:22:11.836Z,2.80
2019-03-25T13:23:16.618Z,6.28
2019-03-25T13:24:21.059Z,4.37
2019-03-25T13:25:25.680Z,5.60
2019-03-25T13:26:30.129Z,4.37
2019-03-25T13:27:34.827Z,6.97
2019-03-25T13:28:39.287Z,5.35
2019-03-25T13:29:52.142Z,3.75
2019-03-25T13:30:50.070Z,4.60
2019-03-25T13:31:54.501Z,5.12
2019-03-25T13:32:59.064Z,6.97
2019-03-25T13:34:03.578Z,5.33
2019-03-25T13:35:08.411Z,6.65
2019-03-25T13:36:13.025Z,4.55
2019-03-25T13:37:17.789Z,3.37
2019-03-25T13:38:22.566Z,3.42
2019-03-25T13:39:27.258Z,4.30
2019-03-25T13:40:31.775Z,4.75
2019-03-25T13:41:36.727Z,4.30
2019-03-25T13:42:41.169Z,5.35
2019-03-25T13:43:45.879Z,2.87
2019-03-25T13:44:50.319Z,5.25
2019-03-25T13:46:05.000Z,3.50
2019-03-25T13:47:01.037Z,5.10
2019-03-25T13:48:05.593Z,6.10
2019-03-25T13:49:10.032Z,5.30
2019-03-25T13:50:14.550Z,4.08
2019-03-25T13:51:19.167Z,5.87
2019-03-25T13:52:24.185Z,6.87
2019-03-25T13:53:28.904Z,4.05
2019-03-25T13:54:33.428Z,6.22
2019-03-25T13:55:37.876Z,3.10
2019-03-25T13:56:42.867Z,6.12
2019-03-25T13:57:47.315Z,7.28
2019-03-25T13:58:51.764Z,5.05